Waikoloa, HI (96738)

9:28 AM HST on December 07, 2016 (GMT -1000)
Waikoloa Village | | Change Station

Elev 1007 ft 19.95 °N, 155.78 °W | Updated 8 minutes ago

Scattered Clouds
Scattered Clouds
78.4 °F
Feels Like 80 °F
N
3.0
Wind Variable Wind from NW
Gusts 5.0 mph

Today
High -- | Low -- °F
--% Chance of Precip.
Yesterday
High -- | Low -- °F
Precip. -- in
Pressure 29.96 in
Visibility 10.0 miles
Clouds Scattered Clouds 15000 ft
Heat Index 80 °F
Dew Point 67 °F
Humidity 68%
Rainfall 0.00 in
Snow Depth Not available.
6:46 AM 5:44 PM
First Quarter, 55% visible
METAR PHKO 071853Z 00000KT 10SM SCT150 26/21 A2996 RMK AO2 SLP146 T02610211
Pressure 29.96 in
Visibility 10.0 miles
Clouds Scattered Clouds 15000 ft
Heat Index 80 °F
Dew Point 67 °F
Humidity 68%
Rainfall 0.00 in
Snow Depth Not available.
6:46 AM 5:44 PM
First Quarter, 55% visible
METAR PHKO 071853Z 00000KT 10SM SCT150 26/21 A2996 RMK AO2 SLP146 T02610211

10-Day Weather Forecast

Almanac

Astronomy

Dec. 07, 2016 Rise Set
Actual Time
Civil Twilight
Nautical Twilight
Astronomical Twilight
Moon
Length of Visible Light
Length of Day
Tomorrow will be .
, % of the Moon is Illuminated

Today's Extremes

State Highs State Lows

Community

WunderPhotos

Upload Photos

1,956,164 photos uploaded!

WunderBlog® & News

Nearby

Air Quality

  Air Quality AQ Index Pollutant
Not available.

Snow Depth

Station Depth Elevation

Earthquake Activity

City Distance Mag. Time & Date
Minimum magnitude displayed is 2.5.

Coastal Water Temperatures

Place Temperature

Stations

Nearby Weather Stations

Station Location Temp. Windchill Dew Point Humidity Wind Precip. Elev Updated Type
                   

Watches & Warnings

There are currently no watches in effect.